createdAt,value
2023-05-07T06:51:46.777Z,14.20
2023-05-07T08:13:37.111Z,15.20
2023-05-07T08:18:14.113Z,15.30
2023-05-07T08:22:27.853Z,15.50
2023-05-07T08:26:37.815Z,15.70
2023-05-07T08:36:23.458Z,15.80
2023-05-07T08:45:28.020Z,16.20
2023-05-07T09:37:39.713Z,17.70
2023-05-07T09:55:20.119Z,18.70
2023-05-07T12:24:22.021Z,18.00
2023-05-07T12:33:15.408Z,17.90
2023-05-07T12:42:27.470Z,18.10
2023-05-07T12:47:00.925Z,18.20
2023-05-07T12:51:14.545Z,18.20
2023-05-07T12:55:25.796Z,18.20
2023-05-07T12:59:39.789Z,18.00
2023-05-07T13:08:05.651Z,17.90
2023-05-07T13:12:15.486Z,17.90
2023-05-07T13:16:36.744Z,17.90
2023-05-07T13:34:10.064Z,17.60
2023-05-07T13:42:56.817Z,17.80
2023-05-07T13:57:19.695Z,17.60
2023-05-07T14:11:54.585Z,17.50
2023-05-07T14:35:47.213Z,17.70
2023-05-07T14:40:11.759Z,17.80
2023-05-07T14:44:23.191Z,17.80
2023-05-07T14:48:33.636Z,17.80
2023-05-07T14:52:58.805Z,17.90
2023-05-07T15:02:27.427Z,18.00
2023-05-07T15:06:59.628Z,18.10
2023-05-07T15:11:09.138Z,18.20
2023-05-07T15:15:33.878Z,18.20
2023-05-07T15:20:07.789Z,18.40
2023-05-07T15:24:24.963Z,18.40
2023-05-07T15:28:41.767Z,18.50
2023-05-07T15:32:52.047Z,18.40
2023-05-07T15:37:01.455Z,18.50
2023-05-07T15:41:13.798Z,18.50
2023-05-07T15:45:23.401Z,18.50
2023-05-07T15:49:32.736Z,18.20
2023-05-07T15:53:45.091Z,18.10
2023-05-07T15:58:08.978Z,18.10
2023-05-07T16:02:18.749Z,17.90
2023-05-07T16:06:28.266Z,17.80
2023-05-07T16:10:37.601Z,17.70
2023-05-07T16:14:48.894Z,17.60
2023-05-07T16:19:09.782Z,17.50
2023-05-07T16:23:20.331Z,17.50
2023-05-07T16:27:29.763Z,17.50
2023-05-07T16:31:41.054Z,17.60
2023-05-07T16:35:54.571Z,17.70
2023-05-07T16:40:08.237Z,17.70
2023-05-07T16:44:18.300Z,17.80
2023-05-07T16:48:30.311Z,17.90
2023-05-07T16:52:44.253Z,18.20
2023-05-07T17:01:19.865Z,18.30
2023-05-07T17:05:32.434Z,18.40
2023-05-07T17:09:45.786Z,18.50
2023-05-07T17:13:55.793Z,18.50
2023-05-07T17:18:08.950Z,18.20
2023-05-07T17:22:46.604Z,17.90
2023-05-07T17:31:38.035Z,17.50
2023-05-07T17:35:47.783Z,17.40
2023-05-07T17:39:59.042Z,17.40
2023-05-07T17:44:08.821Z,17.20
2023-05-07T17:48:19.173Z,17.10
2023-05-07T17:52:29.081Z,17.10
2023-05-07T17:56:40.660Z,16.90
2023-05-07T18:00:50.293Z,16.70
2023-05-07T18:05:01.684Z,16.70
2023-05-07T18:09:12.031Z,16.50
2023-05-07T18:13:23.546Z,16.50
2023-05-07T18:17:33.530Z,16.40
2023-05-07T18:21:46.760Z,16.30
2023-05-07T18:25:57.209Z,16.30
2023-05-07T18:30:10.040Z,16.30
2023-05-07T18:34:21.209Z,16.20
2023-05-07T18:38:32.115Z,16.20
2023-05-07T18:42:43.480Z,16.30
2023-05-07T18:46:55.447Z,16.20
2023-05-07T18:51:07.524Z,16.20
2023-05-07T18:55:18.996Z,16.20
2023-05-07T18:59:29.880Z,16.10
2023-05-07T19:03:41.801Z,16.10
2023-05-07T19:07:57.910Z,16.00
2023-05-07T19:12:10.039Z,16.00
2023-05-07T19:16:21.837Z,15.90
2023-05-07T19:35:00.355Z,15.50
2023-05-07T19:39:11.151Z,15.50
2023-05-07T19:43:43.236Z,15.40
2023-05-07T19:57:50.673Z,15.30
2023-05-07T20:07:06.952Z,15.30
2023-05-07T20:11:18.413Z,15.20
2023-05-07T20:21:05.925Z,15.10
2023-05-07T20:25:17.771Z,15.00
2023-05-07T20:33:52.466Z,14.90
2023-05-07T20:38:02.680Z,14.80
2023-05-07T20:42:14.666Z,14.80
2023-05-07T20:46:26.068Z,14.80
2023-05-07T20:50:36.134Z,14.70
2023-05-07T20:54:48.197Z,14.60
2023-05-07T20:58:59.788Z,14.60
2023-05-07T21:03:12.097Z,14.60
2023-05-07T21:07:22.346Z,14.60
2023-05-07T21:11:32.626Z,14.50
2023-05-07T21:15:44.389Z,14.40
2023-05-07T21:19:54.176Z,14.40
2023-05-07T21:24:04.288Z,14.30
2023-05-07T21:28:14.460Z,14.30
2023-05-07T21:32:26.330Z,14.30
2023-05-07T21:36:36.241Z,14.30
2023-05-07T21:40:46.042Z,14.20
2023-05-07T21:44:56.347Z,14.10
2023-05-07T21:49:07.748Z,14.10
2023-05-07T21:53:18.253Z,14.10
2023-05-07T21:57:28.197Z,14.10
2023-05-07T22:01:37.939Z,14.00
2023-05-07T22:05:49.889Z,14.00
2023-05-07T22:10:00.000Z,14.10
2023-05-07T22:14:09.919Z,14.10
2023-05-07T22:18:19.534Z,14.00
2023-05-07T22:22:36.953Z,14.10
2023-05-07T22:26:47.028Z,14.10
2023-05-07T22:31:01.267Z,14.00
2023-05-07T22:35:15.605Z,14.00
2023-05-07T22:39:37.064Z,14.00
2023-05-07T22:43:48.070Z,14.00
2023-05-07T22:48:04.822Z,14.00
2023-05-07T22:52:14.785Z,14.00
2023-05-07T22:56:26.439Z,14.00
2023-05-07T23:00:40.882Z,14.00
2023-05-07T23:04:57.498Z,14.00
2023-05-07T23:09:13.642Z,14.00
2023-05-07T23:13:25.153Z,14.00
2023-05-07T23:17:35.667Z,14.00
2023-05-07T23:21:45.567Z,13.90
2023-05-07T23:25:55.728Z,13.90
2023-05-07T23:30:08.135Z,13.80
2023-05-07T23:34:24.604Z,13.80
2023-05-07T23:38:35.030Z,13.80
2023-05-07T23:42:44.752Z,13.80
2023-05-07T23:46:56.678Z,13.80
2023-05-07T23:51:06.404Z,13.70
2023-05-07T23:55:17.516Z,13.70
2023-05-07T23:59:35.900Z,13.70
